Íslenskir flugvellir

Veldu flugvelli í þeirri röð sem þeir eiga að birtast og styddu á hnappinn

Uppfært síðast 14.08.2020 - kl. 15:15

SIGMET síðustu 6 klst.

Engin SIGMET skeyti bárust síðustu 6 klst.

Gjögur

METAR síðustu 3 klst

TímiSkeyti
2020-08-14 14.00METAR BIGJ 141400Z 23022KT CAVOK 13/03 Q1000
2020-08-14 13.00METAR BIGJ 141300Z 21028KT CAVOK 13/02 Q0999

TAF

Engin TAF skeyti bárust síðustu 24 klst.

Allur vindur er réttvísandi bæði í Metar og frá sjálfvirkum veðurstöðvum




Aðrir tengdir vefir



Þetta vefsvæði byggir á Eplica